Time;durP1;ratioP1;P1;durP2;ratioP2;P2;SDS_P1;SDS_P2;PMS_P1;PMS_P2;Temp;Humidity;BMP_temperature;BMP_pressure;BME280_temperature;BME280_humidity;BME280_pressure;Samples;Min_cycle;Max_cycle;Signal;HPM_P1;HPM_P2
2022/08/05 00:01:50;;;;;;;17.48;12.38;;;;;;;17.01;100.00;101362.69;5092533;28;20498;-49
2022/08/05 00:04:16;;;;;;;19.98;12.82;;;;;;;16.99;100.00;101356.59;5091850;28;20111;-49
2022/08/05 00:06:42;;;;;;;22.55;14.02;;;;;;;17.00;100.00;101365.28;5092443;28;20051;-48
2022/08/05 00:09:07;;;;;;;19.08;13.43;;;;;;;16.99;100.00;101367.00;5092777;28;20505;-50
2022/08/05 00:11:32;;;;;;;19.08;13.77;;;;;;;17.00;100.00;101365.28;5091669;28;20031;-50
2022/08/05 00:13:57;;;;;;;21.08;14.52;;;;;;;17.01;100.00;101367.88;5092631;28;20039;-49
2022/08/05 00:16:23;;;;;;;21.92;13.93;;;;;;;17.00;100.00;101355.72;5092546;28;20028;-50
2022/08/05 00:18:48;;;;;;;23.80;13.70;;;;;;;17.01;100.00;101367.88;5091439;28;20469;-49
2022/08/05 00:21:15;;;;;;;25.05;14.18;;;;;;;17.01;100.00;101357.47;5092342;28;20042;-48
2022/08/05 00:23:42;;;;;;;22.67;14.77;;;;;;;17.01;100.00;101373.09;5092413;28;20221;-49
2022/08/05 00:26:08;;;;;;;19.88;14.15;;;;;;;17.05;100.00;101374.00;5091628;28;20472;-50
2022/08/05 00:28:34;;;;;;;21.38;14.32;;;;;;;17.07;100.00;101373.16;5092380;28;20024;-49
2022/08/05 00:31:00;;;;;;;22.08;14.50;;;;;;;17.07;100.00;101362.75;5092470;28;20028;-48
2022/08/05 00:33:25;;;;;;;22.73;14.65;;;;;;;17.07;100.00;101362.75;5091450;28;20026;-50
2022/08/05 00:35:51;;;;;;;23.25;14.75;;;;;;;17.07;100.00;101356.69;5092446;28;20021;-49
2022/08/05 00:38:16;;;;;;;22.60;15.05;;;;;;;17.07;100.00;101362.75;5093060;28;20437;-46
2022/08/05 00:40:50;;;;;;;23.27;15.20;;;;;;;17.07;100.00;101372.31;5095836;28;20383;-49
2022/08/05 00:43:15;;;;;;;26.52;15.38;;;;;;;17.09;100.00;101381.88;5095852;28;20049;-50
2022/08/05 00:45:42;;;;;;;21.35;15.02;;;;;;;17.10;100.00;101377.53;5094886;28;20029;-48
2022/08/05 00:48:09;;;;;;;25.90;15.50;;;;;;;17.12;100.00;101378.44;5095780;28;20028;-47
2022/08/05 00:50:34;;;;;;;23.23;14.70;;;;;;;17.10;100.00;101365.38;5095648;28;20375;-45
2022/08/05 00:52:59;;;;;;;25.50;15.27;;;;;;;17.09;100.00;101371.47;5094890;28;20028;-48
2022/08/05 00:55:24;;;;;;;24.50;15.25;;;;;;;17.11;100.00;101374.09;5095681;28;20032;-46
2022/08/05 00:57:50;;;;;;;23.52;15.90;;;;;;;17.11;100.00;101368.88;5095481;28;20107;-48
2022/08/05 01:00:15;;;;;;;24.83;15.32;;;;;;;17.10;100.00;101373.19;5094820;28;20067;-48
2022/08/05 01:02:41;;;;;;;24.25;15.52;;;;;;;17.10;100.00;101375.78;5095280;28;20016;-49
2022/08/05 01:05:06;;;;;;;20.33;14.73;;;;;;;17.10;100.00;101377.53;5095490;28;20035;-47
2022/08/05 01:07:32;;;;;;;23.85;14.40;;;;;;;17.11;100.00;101377.56;5094829;28;20031;-48
2022/08/05 01:09:57;;;;;;;26.17;14.90;;;;;;;17.12;100.00;101381.03;5095396;28;20032;-46
2022/08/05 01:12:24;;;;;;;22.20;14.90;;;;;;;17.10;100.00;101381.00;5095294;28;20106;-49
2022/08/05 01:15:03;;;;;;;26.40;14.67;;;;;;;17.12;100.00;101388.88;5094458;28;20451;-48
2022/08/05 01:17:37;;;;;;;23.30;15.18;;;;;;;17.10;100.00;101388.81;5095206;28;20024;-49
2022/08/05 01:20:31;;;;;;;24.88;15.23;;;;;;;17.11;100.00;101389.72;5095385;28;20059;-47
2022/08/05 01:23:14;;;;;;;23.73;14.90;;;;;;;17.11;100.00;101401.00;5095098;28;20467;-45
2022/08/05 01:25:47;;;;;;;24.05;14.75;;;;;;;17.10;100.00;101401.84;5094660;28;20059;-48
2022/08/05 01:28:15;;;;;;;22.08;14.88;;;;;;;17.13;100.00;101418.38;5094626;28;20036;-46
2022/08/05 01:30:50;;;;;;;21.45;13.93;;;;;;;17.14;100.00;101426.19;5094618;28;20483;-48
2022/08/05 01:33:17;;;;;;;23.65;15.20;;;;;;;17.17;100.00;101434.06;5095354;28;20032;-46
2022/08/05 01:35:46;;;;;;;19.98;14.02;;;;;;;17.20;100.00;101444.50;5093995;28;20475;-48
2022/08/05 01:38:13;;;;;;;21.45;13.40;;;;;;;17.18;100.00;101442.75;5094810;28;20028;-48
2022/08/05 01:40:39;;;;;;;21.00;13.23;;;;;;;17.21;100.00;101443.66;5094776;28;20028;-50
2022/08/05 01:43:05;;;;;;;20.13;13.00;;;;;;;17.25;100.00;101445.44;5093950;28;20109;-49
2022/08/05 01:45:31;;;;;;;24.52;13.85;;;;;;;17.25;100.00;101429.81;5094710;28;20035;-48
2022/08/05 01:47:59;;;;;;;27.00;13.00;;;;;;;17.20;100.00;101421.06;5094557;28;20020;-50
2022/08/05 01:50:31;;;;;;;21.73;13.73;;;;;;;17.17;100.00;101428.84;5092851;28;20074;-49
2022/08/05 01:53:00;;;;;;;27.13;13.18;;;;;;;17.15;100.00;101427.09;5094389;28;20056;-50
2022/08/05 01:55:28;;;;;;;21.98;12.30;;;;;;;17.14;100.00;101425.34;5094611;28;20028;-50
2022/08/05 01:57:56;;;;;;;23.48;12.88;;;;;;;17.14;100.00;101414.91;5093769;28;20086;-49
2022/08/05 02:00:24;;;;;;;23.95;13.25;;;;;;;17.10;100.00;101412.25;5094342;28;20024;-49
2022/08/05 02:02:55;;;;;;;21.10;11.75;;;;;;;17.09;100.00;101407.94;5093545;28;20020;-47
2022/08/05 02:05:24;;;;;;;22.70;12.15;;;;;;;17.08;100.00;101406.19;5094142;28;20039;-49
2022/08/05 02:07:49;;;;;;;22.23;12.18;;;;;;;17.08;100.00;101400.06;5094329;28;20027;-45
2022/08/05 02:10:15;;;;;;;24.00;12.00;;;;;;;17.05;100.00;101390.50;5093437;28;20020;-47
2022/08/05 02:12:50;;;;;;;22.75;12.38;;;;;;;17.04;100.00;101373.16;5093913;28;20028;-48
2022/08/05 02:15:22;;;;;;;23.30;12.82;;;;;;;17.01;100.00;101377.44;5094179;28;20464;-48
2022/08/05 02:17:57;;;;;;;20.33;12.60;;;;;;;16.99;100.00;101385.25;5093194;28;20020;-48
2022/08/05 02:20:25;;;;;;;23.92;11.80;;;;;;;16.98;100.00;101388.69;5094073;28;20097;-45
2022/08/05 02:22:57;;;;;;;26.05;13.57;;;;;;;16.95;100.00;101383.44;5093778;28;20368;-48
2022/08/05 02:25:27;;;;;;;23.55;12.73;;;;;;;16.93;100.00;101385.16;5093271;28;20024;-48
2022/08/05 02:27:56;;;;;;;25.95;13.25;;;;;;;16.92;100.00;101391.22;5093669;28;20542;-46
2022/08/05 02:30:23;;;;;;;25.70;13.10;;;;;;;16.88;100.00;101385.06;5093683;28;20032;-51
2022/08/05 02:32:51;;;;;;;;;;;;;;;16.97;100.00;101399.97;5093501;28;20028;-49
2022/08/05 02:35:21;;;;;;;21.05;12.07;;;;;;;16.93;100.00;101403.38;5093735;28;19912;-46
2022/08/05 02:37:49;;;;;;;20.33;12.10;;;;;;;16.93;100.00;101411.19;5093681;28;20078;-49
2022/08/05 02:40:16;;;;;;;24.10;12.68;;;;;;;16.98;100.00;101414.72;5093401;28;20059;-50
2022/08/05 02:42:42;;;;;;;18.70;11.70;;;;;;;16.97;100.00;101412.97;5093258;28;20103;-50
2022/08/05 02:45:08;;;;;;;19.30;12.05;;;;;;;16.97;100.00;101428.59;5092835;28;20481;-48
2022/08/05 02:47:36;;;;;;;23.60;12.18;;;;;;;16.98;100.00;101422.53;5093639;28;20024;-48
2022/08/05 02:50:03;;;;;;;17.92;11.23;;;;;;;16.99;100.00;101420.81;5093594;28;20107;-48
2022/08/05 02:52:29;;;;;;;21.13;12.23;;;;;;;16.98;100.00;101419.94;5092732;28;20111;-46
2022/08/05 02:54:55;;;;;;;21.48;12.18;;;;;;;16.96;100.00;101416.44;5093396;28;20115;-49
2022/08/05 02:57:21;;;;;;;20.17;11.48;;;;;;;16.95;100.00;101409.47;5093280;28;20127;-49
2022/08/05 02:59:49;;;;;;;22.30;12.30;;;;;;;16.92;100.00;101405.09;5092597;28;20044;-49
2022/08/05 03:02:15;;;;;;;;;;;;;;;17.01;100.00;101393.94;5093705;28;20020;-49
2022/08/05 03:04:41;;;;;;;27.00;13.05;;;;;;;16.89;100.00;101383.34;5093067;28;19916;-45
2022/08/05 03:07:08;;;;;;;19.52;11.88;;;;;;;16.87;100.00;101379.84;5092615;28;20074;-46
2022/08/05 03:09:35;;;;;;;24.37;12.20;;;;;;;16.85;100.00;101386.75;5093136;28;20047;-49
2022/08/05 03:12:01;;;;;;;21.55;12.88;;;;;;;16.86;100.00;101385.91;5093051;28;20028;-49
2022/08/05 03:14:26;;;;;;;21.77;11.43;;;;;;;16.84;100.00;101379.81;5092478;28;20430;-47
2022/08/05 03:16:51;;;;;;;19.98;12.10;;;;;;;16.85;100.00;101384.16;5093021;28;20149;-46
2022/08/05 03:19:16;;;;;;;23.33;12.48;;;;;;;16.81;100.00;101390.16;5093078;28;20021;-49
2022/08/05 03:21:42;;;;;;;24.40;11.00;;;;;;;16.84;100.00;101400.66;5092090;28;20044;-49
2022/08/05 03:24:08;;;;;;;23.10;11.07;;;;;;;16.82;100.00;101404.94;5093000;28;20463;-50
2022/08/05 03:26:34;;;;;;;24.88;11.60;;;;;;;16.81;100.00;101413.59;5092847;28;20415;-50
2022/08/05 03:28:59;;;;;;;17.77;10.82;;;;;;;16.82;100.00;101407.53;5092454;28;20035;-49
2022/08/05 03:31:25;;;;;;;19.10;11.00;;;;;;;16.81;100.00;101417.09;5092742;28;20028;-46
2022/08/05 03:33:51;;;;;;;18.63;11.35;;;;;;;16.79;100.00;101422.25;5092911;28;20027;-48
2022/08/05 03:36:16;;;;;;;18.90;11.38;;;;;;;16.79;100.00;101431.81;5092348;28;20501;-45
2022/08/05 03:38:42;;;;;;;21.40;12.13;;;;;;;16.79;100.00;101430.06;5092899;28;20031;-46
2022/08/05 03:41:07;;;;;;;16.88;11.18;;;;;;;16.79;100.00;101430.06;5092268;28;20028;-45
2022/08/05 03:43:33;;;;;;;19.55;11.35;;;;;;;16.78;100.00;101425.75;5092600;28;20037;-50
2022/08/05 03:45:58;;;;;;;19.13;11.52;;;;;;;16.78;100.00;101430.06;5092830;28;20028;-48
2022/08/05 03:48:24;;;;;;;20.75;10.68;;;;;;;16.78;100.00;101428.34;5091896;28;20426;-49
2022/08/05 03:50:52;;;;;;;22.02;11.75;;;;;;;16.77;100.00;101426.59;5092574;28;20081;-50
2022/08/05 03:53:29;;;;;;;20.95;12.00;;;;;;;16.77;100.00;101418.78;5092648;28;20475;-47
2022/08/05 03:56:06;;;;;;;19.92;11.57;;;;;;;16.76;100.00;101408.34;5092085;28;20024;-47
2022/08/05 03:58:34;;;;;;;22.63;12.20;;;;;;;16.73;100.00;101401.38;5092863;28;20028;-46
2022/08/05 04:01:02;;;;;;;24.50;12.98;;;;;;;16.71;100.00;101390.06;5092476;28;20518;-50
2022/08/05 04:03:28;;;;;;;23.60;11.65;;;;;;;16.69;100.00;101386.56;5091924;28;20025;-48
2022/08/05 04:05:54;;;;;;;21.35;12.90;;;;;;;16.66;100.00;101389.13;5092486;28;20077;-48
2022/08/05 04:08:20;;;;;;;19.20;12.50;;;;;;;16.63;100.00;101386.50;5092433;28;20055;-49
2022/08/05 04:10:46;;;;;;;25.75;12.70;;;;;;;16.60;100.00;101391.66;5091595;28;20067;-49
2022/08/05 04:13:11;;;;;;;19.58;12.60;;;;;;;16.59;100.00;101411.59;5093871;28;20054;-48
2022/08/05 04:15:37;;;;;;;26.27;13.10;;;;;;;16.57;100.00;101407.22;5096289;28;20042;-49
2022/08/05 04:18:04;;;;;;;21.80;12.45;;;;;;;16.59;100.00;101411.59;5095674;28;20391;-49
2022/08/05 04:20:30;;;;;;;22.48;13.38;;;;;;;16.58;100.00;101403.78;5096193;28;20024;-47
2022/08/05 04:22:55;;;;;;;21.77;12.43;;;;;;;16.51;100.00;101387.19;5096172;28;20487;-50
2022/08/05 04:25:20;;;;;;;20.42;12.77;;;;;;;16.45;100.00;101398.38;5095297;28;20111;-46
2022/08/05 04:27:46;;;;;;;22.27;12.98;;;;;;;16.37;100.00;101405.22;5095998;28;20032;-50
2022/08/05 04:30:11;;;;;;;25.70;13.40;;;;;;;16.32;100.00;101408.59;5096157;28;20028;-48
2022/08/05 04:32:36;;;;;;;26.17;13.57;;;;;;;16.29;100.00;101410.31;5095181;28;20027;-49
2022/08/05 04:35:02;;;;;;;25.92;13.38;;;;;;;16.30;100.00;101413.78;5096032;28;20476;-49
2022/08/05 04:37:27;;;;;;;24.10;13.40;;;;;;;16.30;100.00;101411.16;5095065;28;20028;-49
2022/08/05 04:39:53;;;;;;;21.45;12.75;;;;;;;16.32;100.00;101401.69;5095963;28;20494;-50
2022/08/05 04:42:18;;;;;;;20.30;13.52;;;;;;;16.32;100.00;101412.09;5095802;28;20494;-50
2022/08/05 04:44:43;;;;;;;22.33;14.40;;;;;;;16.35;100.00;101419.91;5094836;28;20047;-50
2022/08/05 04:47:09;;;;;;;24.27;14.38;;;;;;;16.37;100.00;101428.63;5096073;28;20024;-48
2022/08/05 04:49:34;;;;;;;20.70;14.18;;;;;;;16.39;100.00;101426.91;5096004;28;20020;-45
2022/08/05 04:51:59;;;;;;;25.13;14.38;;;;;;;16.41;100.00;101420.00;5094838;28;20549;-50
2022/08/05 04:54:27;;;;;;;22.63;13.18;;;;;;;16.46;100.00;101425.28;5095858;28;20024;-48
2022/08/05 04:56:53;;;;;;;24.35;14.55;;;;;;;16.50;100.00;101426.19;5095694;28;20150;-47
2022/08/05 04:59:19;;;;;;;21.88;13.23;;;;;;;16.53;100.00;101415.84;5094946;28;20111;-50
2022/08/05 05:01:45;;;;;;;23.33;14.23;;;;;;;16.55;100.00;101419.31;5095365;28;20024;-50
2022/08/05 05:04:10;;;;;;;23.85;14.02;;;;;;;16.57;100.00;101418.50;5095467;28;20031;-48
2022/08/05 05:06:36;;;;;;;26.90;15.00;;;;;;;16.59;100.00;101418.50;5094284;28;20567;-47
2022/08/05 05:09:02;;;;;;;26.63;14.40;;;;;;;16.59;100.00;101422.00;5095542;28;20028;-49
2022/08/05 05:11:27;;;;;;;23.75;13.43;;;;;;;16.62;100.00;101422.03;5095213;28;20023;-49
2022/08/05 05:13:52;;;;;;;25.27;13.60;;;;;;;16.65;100.00;101421.22;5094618;28;20040;-49
2022/08/05 05:16:18;;;;;;;20.63;12.73;;;;;;;16.68;100.00;101421.25;5095177;28;20391;-49
2022/08/05 05:18:43;;;;;;;25.85;13.30;;;;;;;16.74;100.00;101418.72;5095129;28;20067;-50
2022/08/05 05:21:08;;;;;;;24.85;13.43;;;;;;;16.79;100.00;101421.41;5094365;28;20036;-50
2022/08/05 05:23:33;;;;;;;21.95;12.15;;;;;;;16.83;100.00;101427.53;5095074;28;20074;-45
2022/08/05 05:25:59;;;;;;;19.80;11.25;;;;;;;16.84;100.00;101432.75;5094891;28;20024;-49
2022/08/05 05:28:24;;;;;;;18.65;11.55;;;;;;;16.83;100.00;101435.34;5094165;28;20035;-49
2022/08/05 05:30:49;;;;;;;22.48;11.50;;;;;;;16.81;100.00;101437.03;5094859;28;20046;-50
2022/08/05 05:33:15;;;;;;;25.52;12.32;;;;;;;16.79;100.00;101434.41;5095021;28;20024;-49
2022/08/05 05:35:40;;;;;;;22.77;12.18;;;;;;;16.75;100.00;101436.09;5093675;28;20036;-49
2022/08/05 05:38:06;;;;;;;21.85;11.32;;;;;;;16.72;100.00;101442.97;5095149;28;20451;-50
2022/08/05 05:40:32;;;;;;;20.67;12.27;;;;;;;16.68;100.00;101442.09;5094766;28;20038;-49
2022/08/05 05:42:58;;;;;;;19.65;11.15;;;;;;;16.65;100.00;101442.03;5093843;28;20052;-49
2022/08/05 05:45:23;;;;;;;19.05;11.70;;;;;;;16.64;100.00;101442.88;5094908;28;20020;-48
2022/08/05 05:47:49;;;;;;;22.77;11.95;;;;;;;16.65;100.00;101452.44;5093849;28;20039;-48
2022/08/05 05:50:16;;;;;;;20.83;11.63;;;;;;;16.65;100.00;101456.78;5094533;28;20058;-49
2022/08/05 05:52:42;;;;;;;;;;;;;;;16.75;100.00;101459.53;5095111;28;20127;-49
2022/08/05 05:55:10;;;;;;;19.25;11.00;;;;;;;16.65;100.00;101461.97;5093742;28;20418;-49
2022/08/05 05:57:37;;;;;;;19.60;11.45;;;;;;;16.68;100.00;101468.13;5094385;28;20111;-47
2022/08/05 06:00:05;;;;;;;22.60;10.63;;;;;;;16.73;100.00;101475.97;5094366;28;20060;-48
2022/08/05 06:02:30;;;;;;;16.42;10.98;;;;;;;16.79;100.00;101479.53;5093465;28;20036;-49
2022/08/05 06:04:56;;;;;;;19.08;10.68;;;;;;;16.80;100.00;101472.63;5094033;28;20435;-49
2022/08/05 06:07:21;;;;;;;19.52;9.93;;;;;;;16.81;100.00;101471.75;5094321;28;20031;-46
2022/08/05 06:09:46;;;;;;;21.98;10.00;;;;;;;16.82;100.00;101470.03;5093292;28;20086;-48
2022/08/05 06:12:12;;;;;;;20.10;9.98;;;;;;;16.83;100.00;101474.38;5094233;28;20028;-50
2022/08/05 06:14:37;;;;;;;21.85;9.98;;;;;;;16.87;100.00;101477.03;5093708;28;20024;-49
2022/08/05 06:17:03;;;;;;;17.63;9.15;;;;;;;16.91;100.00;101473.66;5093339;28;20463;-50
2022/08/05 06:19:28;;;;;;;19.17;10.55;;;;;;;16.97;100.00;101474.63;5093852;28;20023;-49
2022/08/05 06:21:53;;;;;;;21.77;9.70;;;;;;;16.98;100.00;101477.22;5093892;28;20630;-49
2022/08/05 06:24:19;;;;;;;18.70;9.35;;;;;;;16.96;100.00;101473.72;5093234;28;20024;-50
2022/08/05 06:26:44;;;;;;;16.23;9.10;;;;;;;16.92;100.00;101477.13;5093816;28;20024;-50
2022/08/05 06:29:10;;;;;;;16.95;9.77;;;;;;;16.89;100.00;101487.50;5093992;28;20077;-49
2022/08/05 06:31:36;;;;;;;20.15;9.90;;;;;;;16.85;100.00;101485.69;5092903;28;20035;-50
2022/08/05 06:34:02;;;;;;;16.45;10.05;;;;;;;16.86;100.00;101482.22;5093641;28;20028;-48
2022/08/05 06:36:27;;;;;;;20.42;10.30;;;;;;;16.93;100.00;101473.69;5093105;28;20039;-50
2022/08/05 06:38:53;;;;;;;21.10;10.40;;;;;;;17.02;100.00;101478.16;5092900;28;20020;-50
2022/08/05 06:41:19;;;;;;;19.55;10.02;;;;;;;17.14;100.00;101487.84;5093605;28;20035;-50
2022/08/05 06:43:44;;;;;;;17.77;9.93;;;;;;;17.30;100.00;101497.59;5093337;28;20040;-48
2022/08/05 06:46:10;;;;;;;15.98;9.48;;;;;;;17.46;98.60;101495.19;5092681;28;20379;-50
2022/08/05 06:48:35;;;;;;;18.40;9.60;;;;;;;17.62;99.02;101507.50;5093097;28;20032;-50
2022/08/05 06:51:02;;;;;;;21.33;8.85;;;;;;;17.67;97.38;101510.19;5093303;28;20056;-48
2022/08/05 06:53:27;;;;;;;19.20;9.48;;;;;;;17.70;97.33;101508.47;5093461;28;20062;-50
2022/08/05 06:55:53;;;;;;;16.63;8.95;;;;;;;17.67;96.16;101495.41;5093395;28;20043;-45
2022/08/05 06:58:18;;;;;;;21.80;9.73;;;;;;;17.70;96.58;101499.75;5092568;28;20095;-46
2022/08/05 07:00:43;;;;;;;14.38;8.95;;;;;;;17.75;95.83;101508.50;5093187;28;20028;-50
2022/08/05 07:03:09;;;;;;;16.27;9.52;;;;;;;17.85;95.72;101526.00;5093224;28;20063;-49
2022/08/05 07:05:34;;;;;;;20.15;9.13;;;;;;;17.89;94.53;101526.91;5092557;28;20032;-45
2022/08/05 07:07:59;;;;;;;17.70;9.00;;;;;;;17.90;94.96;101528.66;5093222;28;20024;-48
2022/08/05 07:10:24;;;;;;;19.27;9.73;;;;;;;17.93;95.48;101531.31;5093154;28;20036;-48
2022/08/05 07:18:32;;;;;;;15.90;8.70;;;;;;;18.21;93.01;101534.22;5058909;28;20123;-49
2022/08/05 07:20:58;;;;;;;16.23;8.18;;;;;;;18.31;92.03;101536.03;5092186;28;20115;-50
2022/08/05 07:23:23;;;;;;;16.63;9.40;;;;;;;18.37;91.17;101538.72;5093000;28;20020;-49
2022/08/05 07:25:48;;;;;;;16.40;8.23;;;;;;;18.48;91.37;101538.78;5092866;28;20020;-50
2022/08/05 07:28:13;;;;;;;16.60;9.40;;;;;;;18.61;91.96;101541.50;5092114;28;20024;-50
2022/08/05 07:30:39;;;;;;;15.88;7.97;;;;;;;18.70;89.44;101557.22;5092733;28;20031;-50
2022/08/05 07:33:06;;;;;;;15.85;8.20;;;;;;;18.84;89.11;101554.72;5092953;28;20027;-51
2022/08/05 07:35:31;;;;;;;15.55;7.55;;;;;;;18.98;87.77;101555.72;5092246;28;20035;-50
2022/08/05 07:37:57;;;;;;;16.13;6.97;;;;;;;19.00;86.33;101553.97;5092726;28;20024;-50
2022/08/05 07:40:22;;;;;;;13.25;6.72;;;;;;;18.91;85.18;101556.53;5091728;28;20036;-50
2022/08/05 07:42:48;;;;;;;14.95;6.55;;;;;;;19.10;85.75;101554.91;5092443;28;20045;-51
2022/08/05 07:45:14;;;;;;;13.02;5.95;;;;;;;19.18;84.25;101565.41;5093030;28;20016;-49
2022/08/05 07:47:41;;;;;;;10.75;4.97;;;;;;;19.15;82.55;101570.63;5092078;28;20028;-49
2022/08/05 07:50:07;;;;;;;8.13;4.30;;;;;;;19.23;83.07;101574.13;5096812;28;20497;-49
2022/08/05 07:52:37;;;;;;;15.25;5.28;;;;;;;19.33;82.07;101577.69;5096760;28;20024;-49
2022/08/05 07:55:02;;;;;;;11.80;5.00;;;;;;;19.36;82.99;101570.69;5096179;28;20026;-49
2022/08/05 07:57:28;;;;;;;11.68;4.78;;;;;;;19.26;81.79;101568.91;5096588;28;20024;-50
2022/08/05 07:59:53;;;;;;;11.77;5.13;;;;;;;19.17;80.91;101571.47;5096731;28;20390;-49
2022/08/05 08:02:23;;;;;;;8.52;4.00;;;;;;;19.15;78.67;101578.44;5095838;28;20020;-47
2022/08/05 08:04:48;;;;;;;10.82;4.15;;;;;;;19.11;78.51;101582.78;5096558;28;20032;-45
2022/08/05 08:07:14;;;;;;;12.32;4.32;;;;;;;19.27;79.07;101588.09;5096760;28;20016;-46
2022/08/05 08:09:39;;;;;;;9.77;4.53;;;;;;;19.30;78.17;101578.53;5095639;28;20050;-49
2022/08/05 08:12:05;;;;;;;7.60;3.95;;;;;;;19.25;76.75;101585.47;5096448;28;20035;-47
2022/08/05 08:14:31;;;;;;;8.18;3.60;;;;;;;19.29;76.96;101586.34;5096614;28;20028;-50
2022/08/05 08:16:56;;;;;;;13.75;4.15;;;;;;;19.40;76.20;101593.38;5095393;28;20035;-48
2022/08/05 08:19:21;;;;;;;8.45;3.60;;;;;;;19.40;75.25;101590.75;5096393;28;20464;-50
2022/08/05 08:21:46;;;;;;;6.72;3.50;;;;;;;19.37;74.69;101600.34;5096045;28;20028;-49
2022/08/05 08:24:12;;;;;;;12.85;3.53;;;;;;;19.55;73.96;101604.78;5095516;28;20032;-49
2022/08/05 08:26:37;;;;;;;8.85;3.80;;;;;;;19.73;74.51;101599.63;5095959;28;20024;-49
2022/08/05 08:29:03;;;;;;;6.80;3.60;;;;;;;19.92;75.22;101609.31;5096415;28;20024;-50
2022/08/05 08:31:28;;;;;;;9.57;3.83;;;;;;;19.99;72.82;101611.94;5095405;28;20028;-49
2022/08/05 08:33:53;;;;;;;9.20;3.42;;;;;;;20.00;72.14;101618.94;5096060;28;20034;-49
2022/08/05 08:36:18;;;;;;;7.70;3.15;;;;;;;19.98;71.49;101615.41;5096146;28;20026;-50
2022/08/05 08:38:44;;;;;;;8.93;3.55;;;;;;;19.98;71.95;101612.81;5095204;28;20432;-49
2022/08/05 08:41:12;;;;;;;11.43;3.30;;;;;;;20.06;72.12;101624.19;5095891;28;20028;-49
2022/08/05 08:43:40;;;;;;;7.15;3.10;;;;;;;20.19;71.53;101619.84;5094214;28;20044;-46
2022/08/05 08:46:06;;;;;;;6.80;2.80;;;;;;;20.44;71.53;101621.59;5094859;28;20031;-48
2022/08/05 08:48:33;;;;;;;6.82;2.95;;;;;;;20.59;69.57;101619.00;5094624;28;20046;-45
2022/08/05 08:50:59;;;;;;;;;;;;;;;20.82;72.69;101626.88;5094196;28;20060;-48
2022/08/05 08:53:27;;;;;;;8.43;2.67;;;;;;;20.74;69.71;101627.78;5094398;28;19947;-46
2022/08/05 08:55:52;;;;;;;;;;;;;;;20.89;71.86;101636.50;5094652;28;20059;-44
2022/08/05 08:58:17;;;;;;;10.35;3.25;;;;;;;21.09;69.86;101640.84;5093462;28;20057;-48
2022/08/05 09:00:44;;;;;;;21.27;3.50;;;;;;;21.36;68.46;101639.91;5094086;28;20020;-46
2022/08/05 09:03:10;;;;;;;8.17;3.10;;;;;;;21.53;68.80;101649.47;5094584;28;20047;-48
2022/08/05 09:05:35;;;;;;;6.32;2.63;;;;;;;21.33;66.89;101645.16;5093406;28;20313;-49
2022/08/05 09:08:01;;;;;;;8.00;2.65;;;;;;;21.50;67.86;101650.38;5094323;28;20099;-49
2022/08/05 09:10:26;;;;;;;9.05;3.13;;;;;;;21.42;67.70;101660.00;5094101;28;20069;-49
2022/08/05 09:12:52;;;;;;;7.22;3.17;;;;;;;21.23;65.77;101651.31;5093545;28;20032;-50
2022/08/05 09:15:17;;;;;;;7.50;3.10;;;;;;;21.12;67.13;101650.44;5094065;28;20479;-50
2022/08/05 09:17:43;;;;;;;7.38;2.67;;;;;;;21.02;68.34;101665.34;5093976;28;20593;-47
2022/08/05 09:20:09;;;;;;;5.70;2.28;;;;;;;20.82;67.57;101670.56;5093309;28;20024;-49
2022/08/05 09:23:10;;;;;;;8.45;2.88;;;;;;;20.71;69.63;101674.06;5093823;28;20028;-46
2022/08/05 09:25:40;;;;;;;6.00;2.65;;;;;;;20.28;70.77;101681.78;5093949;28;20028;-48
2022/08/05 09:28:17;;;;;;;8.45;2.97;;;;;;;20.12;71.49;101674.78;5093467;28;20042;-46
2022/08/05 09:30:51;;;;;;;11.07;3.50;;;;;;;19.96;71.85;101679.06;5093898;28;20054;-48
2022/08/05 09:33:16;;;;;;;7.35;2.60;;;;;;;19.93;74.09;101677.31;5093249;28;20031;-47
2022/08/05 09:35:55;;;;;;;9.00;2.72;;;;;;;19.78;72.66;101685.06;5093770;28;20039;-46
2022/08/05 09:38:20;;;;;;;7.63;2.55;;;;;;;19.64;71.12;101683.28;5093915;28;20056;-45
2022/08/05 09:40:46;;;;;;;6.60;2.65;;;;;;;19.96;72.00;101672.13;5092908;28;20120;-49
2022/08/05 09:43:32;;;;;;;5.88;2.22;;;;;;;20.40;71.10;101686.22;5058105;28;1021858;-47
2022/08/05 09:45:58;;;;;;;5.78;2.00;;;;;;;20.77;64.98;101680.16;5094468;28;20506;-48
2022/08/05 09:48:26;;;;;;;6.00;2.13;;;;;;;21.28;66.64;101688.88;5094142;28;20028;-48
2022/08/05 09:50:54;;;;;;;5.47;2.40;;;;;;;21.68;63.83;101683.56;5094543;28;20031;-49
2022/08/05 09:53:21;;;;;;;8.65;2.45;;;;;;;22.22;64.01;101687.72;5094429;28;20445;-49
2022/08/05 09:55:50;;;;;;;8.32;2.63;;;;;;;22.22;62.29;101690.34;5093633;28;20111;-50
2022/08/05 09:58:15;;;;;;;4.78;2.10;;;;;;;22.13;60.91;101686.00;5094361;28;20073;-48
2022/08/05 10:01:03;;;;;;;6.25;2.08;;;;;;;21.84;64.37;101697.50;5094346;28;20028;-48
2022/08/05 10:03:28;;;;;;;8.27;2.25;;;;;;;21.51;62.18;101696.69;5094443;28;20066;-50
2022/08/05 10:06:06;;;;;;;5.18;1.95;;;;;;;21.64;63.25;101697.56;5094289;28;20123;-50
2022/08/05 10:08:32;;;;;;;4.93;1.90;;;;;;;21.99;64.28;101698.34;5093384;28;20069;-49
2022/08/05 10:10:57;;;;;;;3.75;1.25;;;;;;;22.17;55.28;101698.22;5093558;28;20028;-48
2022/08/05 10:13:37;;;;;;;4.65;1.30;;;;;;;22.26;54.22;101694.69;5094191;28;20118;-50
2022/08/05 10:16:04;;;;;;;3.22;1.20;;;;;;;22.23;53.88;101707.81;5093380;28;20528;-50
2022/08/05 10:18:31;;;;;;;4.30;1.20;;;;;;;22.03;52.34;101705.31;5094017;28;20027;-47
2022/08/05 10:21:03;;;;;;;3.50;0.90;;;;;;;23.22;48.83;101712.44;5093930;28;20036;-50
2022/08/05 10:23:34;;;;;;;3.25;0.88;;;;;;;23.90;49.79;101702.91;5093346;28;20274;-50
2022/08/05 10:26:04;;;;;;;3.30;0.75;;;;;;;25.24;45.63;101716.78;5094080;28;20028;-50
2022/08/05 10:28:29;;;;;;;4.25;1.05;;;;;;;25.63;41.26;101705.53;5093958;28;20020;-50
2022/08/05 10:30:55;;;;;;;2.63;0.85;;;;;;;25.16;39.19;101718.69;5093026;28;20039;-48
2022/08/05 10:33:22;;;;;;;4.07;0.90;;;;;;;25.38;42.28;101720.97;5093800;28;20028;-49
2022/08/05 10:35:49;;;;;;;3.65;0.82;;;;;;;25.14;40.72;101720.50;5093604;28;20031;-50
2022/08/05 10:38:17;;;;;;;;;;;;;;;25.50;42.60;101723.38;5093691;28;20028;-48
2022/08/05 10:40:48;;;;;;;3.20;0.65;;;;;;;25.06;42.17;101723.25;5093544;28;19939;-44
2022/08/05 10:43:19;;;;;;;3.78;0.82;;;;;;;24.92;42.67;101719.97;5092651;28;20055;-43
2022/08/05 10:45:58;;;;;;;3.60;0.80;;;;;;;24.78;43.52;101722.84;5093502;28;20036;-45
2022/08/05 10:48:37;;;;;;;2.83;0.70;;;;;;;25.87;41.32;101724.44;5093771;28;20052;-48
2022/08/05 10:51:11;;;;;;;2.83;0.68;;;;;;;26.48;40.12;101721.38;5092973;28;20115;-48
2022/08/05 10:53:36;;;;;;;1.48;0.50;;;;;;;26.78;36.74;101727.75;5093183;28;20506;-48
2022/08/05 10:56:08;;;;;;;4.87;0.70;;;;;;;27.54;36.76;101731.09;5093293;28;20032;-46
2022/08/05 10:58:35;;;;;;;2.25;0.70;;;;;;;27.70;32.30;101740.34;5092525;28;20024;-47
2022/08/05 11:01:05;;;;;;;3.05;0.60;;;;;;;28.07;33.62;101746.44;5093513;28;20031;-47
2022/08/05 11:03:31;;;;;;;3.05;0.50;;;;;;;28.06;32.15;101748.19;5093387;28;20054;-47
2022/08/05 11:06:08;;;;;;;2.45;0.43;;;;;;;27.48;34.57;101753.31;5092586;28;20051;-51
2022/08/05 11:08:34;;;;;;;4.32;0.50;;;;;;;26.66;34.55;101746.50;5093190;28;20020;-47
2022/08/05 11:11:34;;;;;;;3.15;0.52;;;;;;;26.29;36.88;101754.38;5093153;28;20069;-49
2022/08/05 11:14:01;;;;;;;1.08;0.52;;;;;;;26.11;34.62;101754.78;5093403;28;20024;-47
2022/08/05 11:16:26;;;;;;;2.47;0.68;;;;;;;26.19;33.68;101747.53;5093133;28;20032;-51
2022/08/05 11:19:30;;;;;;;2.78;0.75;;;;;;;26.34;36.51;101751.63;5092239;28;20028;-48